Harvest Peace — V7VE7 — position and weather

sailwx.info

Track history (hours):
 
Tides and Currents Weather Stations Pressure Air Temp Water Temp Dewpoint Dewpoint Depression Visibility Wind Speed Wind Dir Waves Ship Positions

Harvest Peace

Last reported at 2014-Oct-17 00:24 UTC. Time now 2014-Oct-23 05:24 UTC.
Position N 35°58' W 007°33'.

Length 225 m; draft 7.7 m.

Type: Cargo ship. MMSI: 538004103.

Date/timePositionNaut miles runAvg speedWind from/ knotsBaromVisibWave heightAir tempDewpointWater temp
2014-Oct-17 00:24N 35°58' W 007°33'9411.9
2014-Oct-16 16:32N 35°58' W 005°38'10 9.8
2014-Oct-16 15:34N 36°01' W 005°26'7 6.5
2014-Oct-16 14:34N 36°03' W 005°19'6 5.9
2014-Oct-16 13:34N 36°07' W 005°14'22411.1
2014-Oct-15 17:18N 36°31' W 000°37'53611.7
2014-Oct-13 19:33N 37°37' E 010°30'1312.7
2014-Oct-13 18:33N 37°33' E 010°46'1312.7
2014-Oct-13 17:33N 37°30' E 011°01'1312.4
2014-Oct-13 16:28N 37°24' E 011°16'13112.7
2014-Oct-13 06:05N 36°32' E 013°47'814.1
2014-Oct-13 05:33N 36°29' E 013°56'1313.1
2014-Oct-13 04:33N 36°24' E 014°11'1212.4
2014-Oct-13 03:33N 36°20' E 014°25'1312.6
2014-Oct-13 02:33N 36°15' E 014°40'1212.5
2014-Oct-13 01:33N 36°10' E 014°54'1312.6
2014-Oct-13 00:33N 36°06' E 015°09'1312.6
2014-Oct-12 23:33N 36°06' E 015°24'1312.2
2014-Oct-12 22:32N 36°07' E 015°40'1212.0
2014-Oct-12 21:33N 36°07' E 015°54'36512.0
2014-Oct-11 15:09N 36°37' E 023°26'1212.9
2014-Oct-11 14:13N 36°49' E 023°31'2513.3
2014-Oct-11 12:20N 37°09' E 023°49'1112.4
2014-Oct-11 11:26N 37°18' E 023°56'1112.7
2014-Oct-11 10:33N 37°28' E 024°05'3012.0
2014-Oct-11 08:05N 37°51' E 024°28'713.2
2014-Oct-11 07:33N 37°55' E 024°35'12113.4
2014-Oct-10 22:30N 39°46' E 025°38'1413.3
2014-Oct-10 21:28N 39°56' E 025°50'5212.3
2014-Oct-10 17:17N 40°26' E 026°45'  
Track history (hours):
 
Tides and Currents Weather Stations Pressure Air Temp Water Temp Dewpoint Dewpoint Depression Visibility Wind Speed Wind Dir Waves Ship Positions

Harvest Peace

Last reported at 2014-Oct-17 00:24 UTC. Time now 2014-Oct-23 05:24 UTC.
Position N 35°58' W 007°33'.

Length 225 m; draft 7.7 m.

Type: Cargo ship. MMSI: 538004103.

Date/timePositionNaut miles runAvg speedWind from/ knotsBaromVisibWave heightAir tempDewpointWater temp
2014-Oct-17 00:24N 35°58' W 007°33'9411.9
2014-Oct-16 16:32N 35°58' W 005°38'10 9.8
2014-Oct-16 15:34N 36°01' W 005°26'7 6.5
2014-Oct-16 14:34N 36°03' W 005°19'6 5.9
2014-Oct-16 13:34N 36°07' W 005°14'22411.1
2014-Oct-15 17:18N 36°31' W 000°37'53611.7
2014-Oct-13 19:33N 37°37' E 010°30'1312.7
2014-Oct-13 18:33N 37°33' E 010°46'1312.7
2014-Oct-13 17:33N 37°30' E 011°01'1312.4
2014-Oct-13 16:28N 37°24' E 011°16'13112.7
2014-Oct-13 06:05N 36°32' E 013°47'814.1
2014-Oct-13 05:33N 36°29' E 013°56'1313.1
2014-Oct-13 04:33N 36°24' E 014°11'1212.4
2014-Oct-13 03:33N 36°20' E 014°25'1312.6
2014-Oct-13 02:33N 36°15' E 014°40'1212.5
2014-Oct-13 01:33N 36°10' E 014°54'1312.6
2014-Oct-13 00:33N 36°06' E 015°09'1312.6
2014-Oct-12 23:33N 36°06' E 015°24'1312.2
2014-Oct-12 22:32N 36°07' E 015°40'1212.0
2014-Oct-12 21:33N 36°07' E 015°54'36512.0
2014-Oct-11 15:09N 36°37' E 023°26'1212.9
2014-Oct-11 14:13N 36°49' E 023°31'2513.3
2014-Oct-11 12:20N 37°09' E 023°49'1112.4
2014-Oct-11 11:26N 37°18' E 023°56'1112.7
2014-Oct-11 10:33N 37°28' E 024°05'3012.0
2014-Oct-11 08:05N 37°51' E 024°28'713.2
2014-Oct-11 07:33N 37°55' E 024°35'12113.4
2014-Oct-10 22:30N 39°46' E 025°38'1413.3
2014-Oct-10 21:28N 39°56' E 025°50'5212.3
2014-Oct-10 17:17N 40°26' E 026°45'  

Dump ship's entire track history